createdAt,value
2023-01-21T00:02:36.338Z,17.97
2023-01-21T00:05:24.195Z,23.57
2023-01-21T00:08:11.393Z,21.10
2023-01-21T00:11:05.790Z,24.03
2023-01-21T00:13:53.858Z,27.57
2023-01-21T00:16:41.263Z,22.70
2023-01-21T00:19:30.091Z,23.13
2023-01-21T00:22:17.479Z,24.23
2023-01-21T00:25:05.649Z,22.93
2023-01-21T00:27:53.558Z,27.07
2023-01-21T00:30:42.203Z,21.63
2023-01-21T00:33:30.333Z,27.07
2023-01-21T00:36:18.976Z,27.17
2023-01-21T00:39:07.761Z,26.27
2023-01-21T00:41:55.622Z,22.00
2023-01-21T00:44:42.804Z,21.13
2023-01-21T00:47:30.216Z,23.37
2023-01-21T00:50:17.918Z,21.27
2023-01-21T00:53:05.811Z,24.40
2023-01-21T00:55:53.307Z,24.20
2023-01-21T00:58:43.715Z,24.73
2023-01-21T01:01:34.503Z,23.23
2023-01-21T01:04:23.416Z,23.83
2023-01-21T01:07:11.606Z,24.63
2023-01-21T01:09:59.492Z,25.20
2023-01-21T01:12:46.897Z,21.63
2023-01-21T01:15:34.742Z,25.80
2023-01-21T01:18:22.961Z,22.67
2023-01-21T01:21:14.908Z,19.93
2023-01-21T01:24:03.693Z,22.03
2023-01-21T01:26:51.093Z,21.83
2023-01-21T01:29:38.958Z,20.37
2023-01-21T01:32:26.158Z,19.53
2023-01-21T01:35:14.041Z,19.57
2023-01-21T01:38:07.777Z,22.83
2023-01-21T01:40:55.674Z,20.07
2023-01-21T01:43:51.953Z,21.80
2023-01-21T01:46:39.851Z,29.77
2023-01-21T01:49:27.364Z,22.33
2023-01-21T01:52:16.004Z,27.33
2023-01-21T01:55:03.942Z,20.33
2023-01-21T01:57:53.937Z,28.70
2023-01-21T02:00:41.381Z,23.03
2023-01-21T02:03:45.817Z,24.93
2023-01-21T02:06:33.744Z,21.43
2023-01-21T02:09:21.921Z,24.33
2023-01-21T02:12:09.621Z,23.00
2023-01-21T02:14:57.012Z,21.73
2023-01-21T02:17:44.672Z,23.07
2023-01-21T02:20:35.151Z,26.03
2023-01-21T02:23:51.611Z,21.27
2023-01-21T02:26:57.762Z,18.77
2023-01-21T02:30:03.712Z,20.57
2023-01-21T02:32:53.920Z,23.87
2023-01-21T02:36:14.404Z,23.90
2023-01-21T02:39:01.770Z,20.33
2023-01-21T02:42:05.455Z,19.83
2023-01-21T02:45:01.945Z,21.17
2023-01-21T02:47:54.528Z,23.70
2023-01-21T02:50:52.921Z,25.60
2023-01-21T02:53:40.362Z,21.50
2023-01-21T02:56:28.823Z,22.23
2023-01-21T02:59:16.235Z,22.83
2023-01-21T03:02:09.996Z,23.63
2023-01-21T03:05:05.334Z,25.73
2023-01-21T03:08:08.851Z,23.97
2023-01-21T03:11:00.737Z,22.63
2023-01-21T03:14:30.159Z,22.07
2023-01-21T03:17:27.205Z,24.07
2023-01-21T03:20:19.097Z,24.13
2023-01-21T03:23:09.667Z,30.37
2023-01-21T03:25:58.380Z,28.10
2023-01-21T03:28:48.090Z,27.57
2023-01-21T03:31:37.765Z,25.77
2023-01-21T03:34:26.566Z,25.43
2023-01-21T03:37:23.464Z,24.20
2023-01-21T03:40:18.976Z,22.07
2023-01-21T03:43:07.074Z,25.17
2023-01-21T03:46:12.272Z,25.43
2023-01-21T03:49:26.468Z,25.03
2023-01-21T03:52:14.389Z,26.33
2023-01-21T03:55:02.765Z,25.23
2023-01-21T03:57:50.010Z,29.43
2023-01-21T04:00:37.960Z,22.17
2023-01-21T04:03:25.995Z,24.53
2023-01-21T04:06:16.959Z,27.40
2023-01-21T04:09:05.405Z,33.77
2023-01-21T04:11:52.797Z,25.80
2023-01-21T04:14:40.710Z,23.17
2023-01-21T04:17:28.847Z,22.93
2023-01-21T04:20:16.943Z,23.43
2023-01-21T04:23:04.472Z,27.33
2023-01-21T04:25:53.108Z,26.10
2023-01-21T04:28:42.500Z,26.27
2023-01-21T04:31:29.723Z,27.50
2023-01-21T04:34:17.697Z,28.07
2023-01-21T04:37:05.107Z,26.10
2023-01-21T04:39:52.984Z,26.40
2023-01-21T04:42:41.564Z,25.40
2023-01-21T04:45:29.535Z,25.60
2023-01-21T04:48:18.012Z,25.57
2023-01-21T04:51:06.347Z,24.50
2023-01-21T04:53:54.278Z,23.40
2023-01-21T04:56:41.680Z,25.27
2023-01-21T04:59:29.357Z,27.43
2023-01-21T05:02:16.776Z,29.93
2023-01-21T05:05:05.061Z,25.73
2023-01-21T05:07:55.230Z,28.43
2023-01-21T05:10:43.113Z,23.03
2023-01-21T05:13:30.504Z,28.90
2023-01-21T05:16:18.508Z,24.97
2023-01-21T05:19:05.866Z,29.00
2023-01-21T05:21:54.012Z,24.63
2023-01-21T05:24:41.389Z,23.97
2023-01-21T05:27:29.001Z,28.30
2023-01-21T05:30:16.802Z,29.13
2023-01-21T05:33:04.740Z,21.73
2023-01-21T05:35:53.078Z,27.17
2023-01-21T05:38:40.734Z,25.70
2023-01-21T05:41:28.686Z,32.13
2023-01-21T05:44:17.766Z,28.80
2023-01-21T05:47:05.790Z,25.53
2023-01-21T05:49:53.187Z,25.50
2023-01-21T05:52:41.276Z,30.83
2023-01-21T05:55:29.147Z,26.20
2023-01-21T05:58:16.655Z,29.20
2023-01-21T06:01:04.861Z,27.00
2023-01-21T06:03:52.353Z,28.97
2023-01-21T06:06:41.079Z,29.60
2023-01-21T06:09:28.943Z,25.63
2023-01-21T06:12:16.623Z,24.27
2023-01-21T06:15:04.632Z,22.00
2023-01-21T06:17:53.126Z,25.00
2023-01-21T06:20:40.586Z,26.70
2023-01-21T06:23:28.726Z,24.57
2023-01-21T06:26:16.648Z,26.30
2023-01-21T06:29:04.279Z,23.70
2023-01-21T06:31:52.193Z,32.30
2023-01-21T06:34:39.549Z,25.93
2023-01-21T06:37:27.545Z,34.83
2023-01-21T06:40:15.682Z,25.53
2023-01-21T06:43:03.648Z,22.37
2023-01-21T06:45:51.059Z,22.70
2023-01-21T06:48:38.956Z,25.23
2023-01-21T06:51:26.377Z,23.40
2023-01-21T06:54:14.308Z,21.33
2023-01-21T06:57:01.750Z,24.43
2023-01-21T06:59:49.636Z,23.43
2023-01-21T07:02:37.290Z,20.93
2023-01-21T07:05:25.191Z,25.93
2023-01-21T07:08:12.713Z,22.07
2023-01-21T07:11:00.581Z,25.50
2023-01-21T07:13:47.979Z,27.67
2023-01-21T07:16:35.723Z,23.83
2023-01-21T07:19:23.158Z,29.33
2023-01-21T07:22:11.044Z,26.23
2023-01-21T07:24:58.447Z,23.43
2023-01-21T07:27:45.661Z,25.87
2023-01-21T07:30:33.089Z,20.67
2023-01-21T07:33:20.967Z,19.33
2023-01-21T07:36:08.528Z,23.43
2023-01-21T07:38:56.664Z,26.93
2023-01-21T07:41:44.089Z,21.23
2023-01-21T07:44:31.635Z,28.17
2023-01-21T07:47:19.055Z,25.07
2023-01-21T07:50:09.078Z,26.53
2023-01-21T07:52:56.452Z,25.10
2023-01-21T07:55:44.132Z,22.60
2023-01-21T07:58:31.336Z,23.27
2023-01-21T08:01:19.244Z,25.50
2023-01-21T08:04:09.919Z,25.20
2023-01-21T08:06:59.249Z,23.97
2023-01-21T08:09:46.745Z,29.70
2023-01-21T08:12:34.194Z,29.33
2023-01-21T08:15:21.583Z,27.07
2023-01-21T08:18:09.487Z,27.47
2023-01-21T08:20:58.639Z,26.67
2023-01-21T08:23:46.564Z,23.77
2023-01-21T08:26:34.292Z,23.37
2023-01-21T08:29:21.728Z,21.40
2023-01-21T08:32:09.133Z,27.87
2023-01-21T08:34:56.811Z,22.73
2023-01-21T08:37:44.798Z,28.57
2023-01-21T08:40:32.154Z,24.23
2023-01-21T08:43:20.124Z,24.80
2023-01-21T08:46:07.535Z,23.63
2023-01-21T08:48:55.381Z,26.77
2023-01-21T08:51:42.805Z,21.77
2023-01-21T08:54:31.144Z,32.57
2023-01-21T08:57:18.594Z,28.10
2023-01-21T09:00:06.765Z,22.23
2023-01-21T09:02:54.304Z,23.23
2023-01-21T09:05:42.164Z,25.73
2023-01-21T09:08:30.027Z,22.47
2023-01-21T09:11:17.990Z,23.70
2023-01-21T09:14:05.259Z,30.90
2023-01-21T09:16:52.540Z,25.43
2023-01-21T09:19:39.904Z,24.60
2023-01-21T09:22:28.368Z,25.00
2023-01-21T09:25:15.997Z,23.17
2023-01-21T09:28:03.948Z,27.73
2023-01-21T09:30:56.151Z,31.30
2023-01-21T09:33:45.210Z,27.90
2023-01-21T09:36:34.063Z,27.00
2023-01-21T09:39:21.474Z,25.23
2023-01-21T09:42:17.295Z,25.27
2023-01-21T09:45:04.911Z,30.77
2023-01-21T09:47:55.037Z,22.03
2023-01-21T09:50:45.965Z,25.50
2023-01-21T09:53:37.357Z,21.80
2023-01-21T09:56:35.622Z,18.60
2023-01-21T09:59:25.089Z,22.20
2023-01-21T10:02:28.562Z,26.70
2023-01-21T10:05:19.780Z,18.80
2023-01-21T10:08:10.222Z,23.70
2023-01-21T10:11:13.480Z,21.73
2023-01-21T10:14:00.859Z,22.13
2023-01-21T10:17:07.050Z,21.83
2023-01-21T10:20:15.668Z,21.37
2023-01-21T10:23:04.981Z,22.30
2023-01-21T10:25:52.333Z,20.40
2023-01-21T10:28:41.564Z,22.17
2023-01-21T10:31:34.250Z,20.73
2023-01-21T10:34:21.615Z,24.93
2023-01-21T10:37:26.085Z,20.20
2023-01-21T10:40:39.522Z,22.93
2023-01-21T10:43:41.771Z,23.03
2023-01-21T10:46:33.260Z,22.50
2023-01-21T10:49:32.494Z,24.73
2023-01-21T10:52:22.852Z,27.10
2023-01-21T10:55:20.221Z,25.63
2023-01-21T10:58:22.076Z,18.13
2023-01-21T11:01:16.897Z,22.23
2023-01-21T11:04:23.458Z,21.70
2023-01-21T11:07:13.534Z,24.00
2023-01-21T11:10:01.484Z,22.97
2023-01-21T11:12:49.590Z,24.33
2023-01-21T11:15:46.033Z,21.00
2023-01-21T11:18:35.749Z,25.13
2023-01-21T11:21:24.728Z,25.20
2023-01-21T11:24:23.021Z,21.67
2023-01-21T11:27:19.609Z,22.00
2023-01-21T11:30:26.109Z,34.60
2023-01-21T11:33:28.434Z,25.30
2023-01-21T11:36:17.052Z,22.03
2023-01-21T11:39:06.169Z,26.60
2023-01-21T11:41:57.682Z,23.47
2023-01-21T11:45:06.086Z,25.30
2023-01-21T11:47:53.903Z,20.67
2023-01-21T11:50:41.444Z,21.87
2023-01-21T11:53:29.529Z,20.27
2023-01-21T11:56:17.040Z,21.90
2023-01-21T11:59:23.029Z,18.27
2023-01-21T12:02:16.405Z,22.97
2023-01-21T12:05:09.242Z,19.67
2023-01-21T12:07:57.096Z,19.63
2023-01-21T12:10:46.528Z,24.33
2023-01-21T12:13:37.730Z,15.37
2023-01-21T12:16:35.355Z,17.03
2023-01-21T12:19:46.277Z,19.20
2023-01-21T12:22:47.935Z,16.53
2023-01-21T12:25:48.000Z,16.17
2023-01-21T12:28:36.017Z,17.57
2023-01-21T12:31:32.973Z,15.00
2023-01-21T12:34:26.229Z,17.37
2023-01-21T12:37:18.704Z,18.43
2023-01-21T12:40:18.576Z,21.37
2023-01-21T12:43:18.221Z,16.47
2023-01-21T12:46:18.818Z,16.77
2023-01-21T12:49:07.265Z,20.57
2023-01-21T12:51:57.499Z,19.17
2023-01-21T12:54:49.424Z,18.70
2023-01-21T12:57:47.826Z,14.27
2023-01-21T13:00:37.353Z,16.80
2023-01-21T13:03:27.636Z,18.47
2023-01-21T13:06:18.478Z,16.80
2023-01-21T13:09:13.184Z,15.00
2023-01-21T13:12:04.142Z,18.47
2023-01-21T13:15:03.338Z,17.87
2023-01-21T13:17:52.756Z,17.30
2023-01-21T13:20:42.913Z,14.83
2023-01-21T13:23:35.687Z,14.37
2023-01-21T13:26:25.938Z,17.60
2023-01-21T13:29:27.728Z,15.93
2023-01-21T13:32:27.207Z,14.87
2023-01-21T13:35:15.830Z,17.27
2023-01-21T13:38:06.390Z,17.40
2023-01-21T13:41:03.098Z,15.97
2023-01-21T13:44:05.698Z,20.03
2023-01-21T13:47:11.843Z,17.57
2023-01-21T13:50:15.918Z,15.13
2023-01-21T13:53:27.315Z,20.80
2023-01-21T13:56:18.237Z,10.93
2023-01-21T13:59:12.812Z,15.03
2023-01-21T14:02:12.177Z,14.83
2023-01-21T14:05:02.609Z,18.77
2023-01-21T14:07:54.648Z,14.60
2023-01-21T14:10:49.761Z,18.00
2023-01-21T14:13:43.445Z,17.10
2023-01-21T14:16:41.165Z,18.97
2023-01-21T14:19:47.080Z,20.43
2023-01-21T14:22:41.644Z,16.17
2023-01-21T14:25:36.065Z,20.23
2023-01-21T14:28:29.080Z,14.97
2023-01-21T14:31:20.979Z,18.90
2023-01-21T14:34:23.309Z,16.47
2023-01-21T14:37:13.301Z,15.47
2023-01-21T14:40:03.687Z,18.87
2023-01-21T14:42:51.857Z,18.33
2023-01-21T14:45:51.438Z,17.27
2023-01-21T14:48:43.087Z,15.33
2023-01-21T14:51:32.194Z,16.83
2023-01-21T14:54:23.634Z,16.97
2023-01-21T14:57:21.261Z,17.77
2023-01-21T15:00:22.772Z,15.37
2023-01-21T15:03:20.880Z,18.00
2023-01-21T15:06:09.735Z,16.07
2023-01-21T15:08:58.465Z,19.37
2023-01-21T15:11:45.908Z,15.13
2023-01-21T15:14:38.442Z,12.37
2023-01-21T15:17:44.794Z,14.37
2023-01-21T15:20:47.550Z,15.80
2023-01-21T15:23:35.445Z,16.57
2023-01-21T15:26:32.690Z,17.60
2023-01-21T15:29:24.696Z,16.77
2023-01-21T15:32:27.445Z,19.20
2023-01-21T15:35:33.220Z,13.83
2023-01-21T15:38:20.791Z,14.00
2023-01-21T15:41:13.692Z,16.10
2023-01-21T15:44:03.900Z,15.83
2023-01-21T15:46:51.331Z,15.33
2023-01-21T15:49:50.744Z,16.00
2023-01-21T15:52:47.822Z,16.73
2023-01-21T15:55:35.247Z,17.83
2023-01-21T15:58:28.607Z,14.17
2023-01-21T16:01:35.012Z,12.50
2023-01-21T16:04:32.696Z,12.77
2023-01-21T16:07:32.456Z,14.87
2023-01-21T16:10:32.053Z,13.93
2023-01-21T16:13:29.305Z,13.13
2023-01-21T16:16:25.595Z,13.50
2023-01-21T16:19:18.128Z,12.93
2023-01-21T16:22:07.568Z,13.60
2023-01-21T16:24:58.567Z,13.80
2023-01-21T16:27:51.691Z,12.93
2023-01-21T16:30:39.617Z,13.77
2023-01-21T16:33:26.998Z,15.90
2023-01-21T16:36:15.044Z,14.97
2023-01-21T16:39:06.631Z,12.30
2023-01-21T16:42:04.869Z,13.13
2023-01-21T16:44:52.571Z,12.70
2023-01-21T16:47:41.263Z,12.07
2023-01-21T16:50:29.693Z,17.73
2023-01-21T16:53:18.816Z,14.10
2023-01-21T16:56:06.378Z,15.70
2023-01-21T16:58:56.091Z,13.27
2023-01-21T17:01:44.082Z,12.80
2023-01-21T17:04:31.792Z,11.90
2023-01-21T17:07:39.425Z,12.10
2023-01-21T17:10:29.872Z,16.53
2023-01-21T17:13:17.850Z,12.97
2023-01-21T17:16:06.895Z,13.40
2023-01-21T17:18:57.746Z,14.70
2023-01-21T17:21:46.608Z,16.33
2023-01-21T17:24:39.140Z,15.53
2023-01-21T17:27:27.812Z,14.13
2023-01-21T17:30:34.173Z,18.33
2023-01-21T17:33:27.949Z,30.43
2023-01-21T17:36:18.314Z,25.93
2023-01-21T17:39:07.425Z,14.33
2023-01-21T17:42:03.219Z,12.57
2023-01-21T17:44:52.852Z,14.00
2023-01-21T17:48:04.077Z,14.40
2023-01-21T17:50:48.059Z,14.10
2023-01-21T17:53:41.219Z,14.70
2023-01-21T17:56:35.071Z,12.13
2023-01-21T17:59:44.017Z,13.43
2023-01-21T18:02:32.258Z,16.20
2023-01-21T18:05:20.176Z,13.67
2023-01-21T18:08:12.917Z,17.13
2023-01-21T18:11:00.211Z,15.97
2023-01-21T18:13:47.984Z,17.47
2023-01-21T18:16:35.370Z,15.27
2023-01-21T18:19:31.753Z,16.97
2023-01-21T18:22:30.247Z,13.70
2023-01-21T18:25:18.315Z,16.13
2023-01-21T18:28:07.822Z,11.73
2023-01-21T18:30:56.568Z,12.83
2023-01-21T18:33:43.925Z,12.53
2023-01-21T18:36:31.392Z,15.53
2023-01-21T18:39:20.434Z,14.20
2023-01-21T18:42:11.094Z,15.77
2023-01-21T18:44:59.031Z,13.77
2023-01-21T18:47:47.613Z,15.60
2023-01-21T18:50:35.055Z,16.00
2023-01-21T18:53:23.063Z,12.13
2023-01-21T18:56:13.645Z,15.20
2023-01-21T18:59:01.177Z,14.63
2023-01-21T19:01:48.785Z,19.63
2023-01-21T19:04:36.207Z,16.70
2023-01-21T19:07:25.445Z,13.70
2023-01-21T19:10:16.957Z,12.43
2023-01-21T19:13:04.768Z,17.83
2023-01-21T19:15:53.889Z,22.10
2023-01-21T19:18:41.258Z,19.33
2023-01-21T19:21:28.698Z,23.70
2023-01-21T19:24:16.048Z,19.60
2023-01-21T19:27:03.577Z,19.30
2023-01-21T19:29:51.440Z,15.60
2023-01-21T19:32:38.850Z,14.43
2023-01-21T19:35:32.595Z,17.93
2023-01-21T19:38:21.722Z,14.13
2023-01-21T19:41:09.683Z,13.53
2023-01-21T19:43:57.777Z,15.70
2023-01-21T19:46:45.793Z,14.43
2023-01-21T19:49:33.222Z,15.93
2023-01-21T19:52:20.945Z,14.20
2023-01-21T19:55:08.543Z,17.20
2023-01-21T19:58:01.183Z,14.97
2023-01-21T20:00:49.673Z,20.97
2023-01-21T20:03:38.879Z,18.50
2023-01-21T20:06:33.639Z,17.00
2023-01-21T20:09:22.117Z,17.00
2023-01-21T20:12:10.944Z,16.40
2023-01-21T20:14:58.346Z,15.53
2023-01-21T20:17:46.774Z,12.77
2023-01-21T20:20:34.825Z,14.33
2023-01-21T20:23:22.933Z,16.60
2023-01-21T20:26:17.455Z,14.03
2023-01-21T20:29:07.491Z,16.00
2023-01-21T20:31:54.977Z,14.67
2023-01-21T20:34:42.781Z,20.60
2023-01-21T20:37:30.167Z,17.90
2023-01-21T20:40:19.510Z,18.77
2023-01-21T20:43:07.122Z,19.37
2023-01-21T20:45:55.668Z,13.50
2023-01-21T20:48:44.462Z,15.53
2023-01-21T20:51:31.901Z,14.10
2023-01-21T20:54:19.255Z,14.90
2023-01-21T20:57:13.394Z,13.10
2023-01-21T21:00:00.777Z,15.33
2023-01-21T21:02:49.550Z,14.33
2023-01-21T21:05:37.930Z,16.03
2023-01-21T21:08:26.281Z,16.17
2023-01-21T21:11:17.266Z,16.03
2023-01-21T21:14:04.540Z,13.07
2023-01-21T21:16:52.005Z,23.70
2023-01-21T21:19:39.408Z,15.87
2023-01-21T21:22:26.614Z,15.23
2023-01-21T21:25:15.365Z,15.37
2023-01-21T21:28:03.480Z,14.77
2023-01-21T21:30:50.691Z,17.77
2023-01-21T21:33:38.109Z,14.20
2023-01-21T21:36:26.057Z,17.37
2023-01-21T21:39:19.562Z,15.80
2023-01-21T21:42:25.773Z,18.63
2023-01-21T21:45:13.634Z,15.50
2023-01-21T21:48:19.581Z,16.03
2023-01-21T21:51:08.343Z,16.07
2023-01-21T21:53:55.724Z,16.57
2023-01-21T21:56:43.510Z,17.90
2023-01-21T21:59:30.908Z,16.70
2023-01-21T22:02:18.821Z,19.27
2023-01-21T22:05:06.470Z,18.70
2023-01-21T22:07:53.916Z,18.30
2023-01-21T22:10:41.329Z,19.17
2023-01-21T22:13:29.351Z,17.93
2023-01-21T22:16:18.324Z,13.47
2023-01-21T22:19:05.707Z,16.73
2023-01-21T22:21:53.153Z,16.90
2023-01-21T22:24:41.046Z,18.60
2023-01-21T22:27:28.432Z,14.67
2023-01-21T22:30:16.203Z,15.87
2023-01-21T22:33:03.663Z,20.77
2023-01-21T22:35:51.587Z,17.97
2023-01-21T22:38:40.752Z,24.13
2023-01-21T22:41:28.813Z,20.80
2023-01-21T22:44:16.244Z,17.50
2023-01-21T22:47:03.675Z,14.50
2023-01-21T22:49:51.093Z,17.10
2023-01-21T22:52:39.005Z,17.83
2023-01-21T22:55:26.381Z,19.53
2023-01-21T22:58:14.276Z,18.67
2023-01-21T23:01:02.026Z,14.57
2023-01-21T23:03:49.933Z,18.63
2023-01-21T23:06:38.146Z,19.43
2023-01-21T23:09:25.549Z,18.50
2023-01-21T23:12:19.091Z,17.37
2023-01-21T23:15:06.507Z,17.90
2023-01-21T23:17:54.452Z,13.63
2023-01-21T23:20:43.263Z,18.00
2023-01-21T23:23:36.081Z,21.10
2023-01-21T23:26:23.534Z,18.57
2023-01-21T23:29:11.120Z,16.57
2023-01-21T23:31:58.690Z,15.23
2023-01-21T23:34:46.473Z,25.47
2023-01-21T23:37:34.352Z,14.57
2023-01-21T23:40:21.743Z,19.13
2023-01-21T23:43:09.635Z,14.33
2023-01-21T23:45:57.008Z,16.97
2023-01-21T23:48:44.843Z,15.47
2023-01-21T23:51:33.362Z,19.03
2023-01-21T23:54:20.551Z,20.10
2023-01-21T23:57:08.141Z,22.37
2023-01-21T23:59:55.615Z,17.27
